createdAt,value
2022-10-14T00:01:24.456Z,25.13
2022-10-14T00:03:51.767Z,24.20
2022-10-14T00:06:24.941Z,23.27
2022-10-14T00:08:52.359Z,17.77
2022-10-14T00:11:28.496Z,17.57
2022-10-14T00:13:59.844Z,20.10
2022-10-14T00:16:35.707Z,18.93
2022-10-14T00:19:04.440Z,20.67
2022-10-14T00:21:32.649Z,18.67
2022-10-14T00:23:59.695Z,20.27
2022-10-14T00:26:38.298Z,21.07
2022-10-14T00:29:11.193Z,14.63
2022-10-14T00:31:38.181Z,18.50
2022-10-14T00:34:05.237Z,20.63
2022-10-14T00:36:32.425Z,15.07
2022-10-14T00:38:59.403Z,16.33
2022-10-14T00:41:31.373Z,18.40
2022-10-14T00:44:27.022Z,14.83
2022-10-14T00:46:55.524Z,19.50
2022-10-14T00:49:36.377Z,18.43
2022-10-14T00:52:13.414Z,16.33
2022-10-14T00:55:10.692Z,21.67
2022-10-14T00:57:39.033Z,24.77
2022-10-14T01:00:16.008Z,17.60
2022-10-14T01:02:43.231Z,24.27
2022-10-14T01:05:13.725Z,29.07
2022-10-14T01:08:09.073Z,30.53
2022-10-14T01:10:56.920Z,14.07
2022-10-14T01:13:47.864Z,19.13
2022-10-14T01:16:56.869Z,15.87
2022-10-14T01:20:19.755Z,17.17
2022-10-14T01:23:14.967Z,15.03
2022-10-14T01:26:41.817Z,13.30
2022-10-14T01:29:45.126Z,17.00
2022-10-14T01:32:55.218Z,16.93
2022-10-14T01:35:42.027Z,20.67
2022-10-14T01:38:25.741Z,20.00
2022-10-14T01:41:19.767Z,16.17
2022-10-14T01:43:50.737Z,18.40
2022-10-14T01:46:21.921Z,12.23
2022-10-14T01:48:59.376Z,12.27
2022-10-14T01:51:41.196Z,17.67
2022-10-14T01:54:15.214Z,21.23
2022-10-14T01:56:45.117Z,14.60
2022-10-14T01:59:14.201Z,15.50
2022-10-14T02:01:41.354Z,15.97
2022-10-14T02:04:21.203Z,19.53
2022-10-14T02:07:09.310Z,19.10
2022-10-14T02:10:21.149Z,15.73
2022-10-14T02:13:27.438Z,16.23
2022-10-14T02:16:29.150Z,16.77
2022-10-14T02:19:21.216Z,17.23
2022-10-14T02:22:38.065Z,18.00
2022-10-14T02:25:20.849Z,17.27
2022-10-14T02:27:50.464Z,17.67
2022-10-14T02:30:18.946Z,19.37
2022-10-14T02:32:47.669Z,19.93
2022-10-14T02:35:18.087Z,19.37
2022-10-14T02:37:48.254Z,18.57
2022-10-14T02:40:26.091Z,19.03
2022-10-14T02:42:53.062Z,21.50
2022-10-14T02:45:20.625Z,21.27
2022-10-14T02:47:47.938Z,12.97
2022-10-14T02:50:14.922Z,14.93
2022-10-14T02:52:41.851Z,20.30
2022-10-14T02:55:09.113Z,14.13
2022-10-14T02:57:36.058Z,14.83
2022-10-14T03:00:05.429Z,17.73
2022-10-14T03:02:32.477Z,19.70
2022-10-14T03:04:59.435Z,18.87
2022-10-14T03:07:26.779Z,15.97
2022-10-14T03:09:53.703Z,20.43
2022-10-14T03:12:21.023Z,12.73
2022-10-14T03:14:48.121Z,12.27
2022-10-14T03:17:17.174Z,13.37
2022-10-14T03:19:44.139Z,9.83
2022-10-14T03:22:11.041Z,14.80
2022-10-14T03:24:37.995Z,15.33
2022-10-14T03:27:05.005Z,17.87
2022-10-14T03:29:31.911Z,14.43
2022-10-14T03:31:58.814Z,13.03
2022-10-14T03:34:25.943Z,15.27
2022-10-14T03:36:52.882Z,14.97
2022-10-14T03:39:20.646Z,12.37
2022-10-14T03:41:47.608Z,12.30
2022-10-14T03:44:14.706Z,13.20
2022-10-14T03:46:41.640Z,14.30
2022-10-14T03:49:08.544Z,14.63
2022-10-14T03:51:35.558Z,15.13
2022-10-14T03:54:02.502Z,13.93
2022-10-14T03:56:29.430Z,15.50
2022-10-14T03:58:56.392Z,16.73
2022-10-14T04:01:23.434Z,16.27
2022-10-14T04:03:50.973Z,13.23
2022-10-14T04:06:18.196Z,14.40
2022-10-14T04:08:45.137Z,14.57
2022-10-14T04:11:12.030Z,13.40
2022-10-14T04:13:39.004Z,14.07
2022-10-14T04:16:09.617Z,15.17
2022-10-14T04:18:37.993Z,16.47
2022-10-14T04:21:11.015Z,13.17
2022-10-14T04:23:38.492Z,15.17
2022-10-14T04:26:08.088Z,13.60
2022-10-14T04:28:35.756Z,14.17
2022-10-14T04:31:04.114Z,14.80
2022-10-14T04:33:31.138Z,14.80
2022-10-14T04:36:06.983Z,13.83
2022-10-14T04:38:34.245Z,17.87
2022-10-14T04:41:01.559Z,17.83
2022-10-14T04:43:28.566Z,18.80
2022-10-14T04:45:55.536Z,20.13
2022-10-14T04:48:22.866Z,21.60
2022-10-14T04:50:54.217Z,26.80
2022-10-14T04:53:22.408Z,25.73
2022-10-14T04:55:51.897Z,19.47
2022-10-14T04:58:18.922Z,17.07
2022-10-14T05:00:46.074Z,20.93
2022-10-14T05:03:12.994Z,22.07
2022-10-14T05:05:40.044Z,16.70
2022-10-14T05:08:07.034Z,17.27
2022-10-14T05:10:34.336Z,22.37
2022-10-14T05:13:01.356Z,13.73
2022-10-14T05:15:29.024Z,16.57
2022-10-14T05:17:55.974Z,16.73
2022-10-14T05:20:22.990Z,15.00
2022-10-14T05:22:50.206Z,14.03
2022-10-14T05:25:17.273Z,10.90
2022-10-14T05:27:44.362Z,12.90
2022-10-14T05:30:12.313Z,17.20
2022-10-14T05:32:39.268Z,15.43
2022-10-14T05:35:06.566Z,12.17
2022-10-14T05:37:41.022Z,12.23
2022-10-14T05:40:10.311Z,17.43
2022-10-14T05:42:37.610Z,15.27
2022-10-14T05:45:06.207Z,13.57
2022-10-14T05:47:33.938Z,13.57
2022-10-14T05:50:03.344Z,13.77
2022-10-14T05:52:34.208Z,15.20
2022-10-14T05:55:01.904Z,13.13
2022-10-14T05:57:29.455Z,11.97
2022-10-14T05:59:57.209Z,14.50
2022-10-14T06:02:24.516Z,13.63
2022-10-14T06:04:52.023Z,13.10
2022-10-14T06:07:19.878Z,13.77
2022-10-14T06:09:47.233Z,10.47
2022-10-14T06:12:14.952Z,15.17
2022-10-14T06:14:41.911Z,16.93
2022-10-14T06:17:08.854Z,21.07
2022-10-14T06:19:35.832Z,14.97
2022-10-14T06:22:03.581Z,13.53
2022-10-14T06:24:33.131Z,10.37
2022-10-14T06:27:00.048Z,14.53
2022-10-14T06:29:31.210Z,12.23
2022-10-14T06:31:58.159Z,15.17
2022-10-14T06:34:25.122Z,12.80
2022-10-14T06:36:52.080Z,19.33
2022-10-14T06:39:19.140Z,16.07
2022-10-14T06:41:46.103Z,15.47
2022-10-14T06:44:15.461Z,17.73
2022-10-14T06:46:42.758Z,19.07
2022-10-14T06:49:09.892Z,14.80
2022-10-14T06:51:38.787Z,17.07
2022-10-14T06:54:06.220Z,19.80
2022-10-14T06:56:34.407Z,19.43
2022-10-14T06:59:01.423Z,20.37
2022-10-14T07:01:28.389Z,18.53
2022-10-14T07:03:56.732Z,12.97
2022-10-14T07:06:24.314Z,13.67
2022-10-14T07:08:51.236Z,19.03
2022-10-14T07:11:18.198Z,14.03
2022-10-14T07:13:45.973Z,17.77
2022-10-14T07:16:12.917Z,14.00
2022-10-14T07:18:39.857Z,17.90
2022-10-14T07:21:08.022Z,15.83
2022-10-14T07:23:34.959Z,16.03
2022-10-14T07:26:02.342Z,17.83
2022-10-14T07:28:29.799Z,18.40
2022-10-14T07:31:08.852Z,19.60
2022-10-14T07:33:38.878Z,19.40
2022-10-14T07:36:15.034Z,17.83
2022-10-14T07:38:44.953Z,17.47
2022-10-14T07:41:20.487Z,14.13
2022-10-14T07:44:06.064Z,16.40
2022-10-14T07:46:36.845Z,15.03
2022-10-14T07:49:16.467Z,19.50
2022-10-14T07:51:45.336Z,15.87
2022-10-14T07:54:33.401Z,13.93
2022-10-14T07:57:00.452Z,14.47
2022-10-14T07:59:27.374Z,17.37
2022-10-14T08:01:56.589Z,18.37
2022-10-14T08:04:25.310Z,17.40
2022-10-14T08:06:52.992Z,18.20
2022-10-14T08:09:20.114Z,18.80
2022-10-14T08:11:47.814Z,19.43
2022-10-14T08:14:14.918Z,11.70
2022-10-14T08:16:42.000Z,18.97
2022-10-14T08:19:14.654Z,18.10
2022-10-14T08:21:43.556Z,12.73
2022-10-14T08:24:11.365Z,17.67
2022-10-14T08:26:55.034Z,15.33
2022-10-14T08:29:25.592Z,18.40
2022-10-14T08:31:54.093Z,19.03
2022-10-14T08:34:21.730Z,17.87
2022-10-14T08:36:49.224Z,18.67
2022-10-14T08:39:19.405Z,19.30
2022-10-14T08:42:26.949Z,18.03
2022-10-14T08:45:21.152Z,18.00
2022-10-14T08:47:48.692Z,16.17
2022-10-14T08:50:40.527Z,17.87
2022-10-14T08:53:41.569Z,18.23
2022-10-14T08:56:11.435Z,20.17
2022-10-14T08:58:53.776Z,18.27
2022-10-14T09:01:29.606Z,18.77
2022-10-14T09:04:13.841Z,19.20
2022-10-14T09:06:46.657Z,19.03
2022-10-14T09:09:44.602Z,19.30
2022-10-14T09:12:21.779Z,16.23
2022-10-14T09:15:06.392Z,19.23
2022-10-14T09:18:21.360Z,18.40
2022-10-14T09:20:49.000Z,18.07
2022-10-14T09:23:24.485Z,16.63
2022-10-14T09:26:11.507Z,16.70
2022-10-14T09:28:43.527Z,17.07
2022-10-14T09:31:14.390Z,17.17
2022-10-14T09:33:43.006Z,17.10
2022-10-14T09:36:21.906Z,16.57
2022-10-14T09:38:52.722Z,20.70
2022-10-14T09:41:31.237Z,16.23
2022-10-14T09:44:25.836Z,16.70
2022-10-14T09:47:02.278Z,15.63
2022-10-14T09:49:46.311Z,15.97
2022-10-14T09:52:31.507Z,16.57
2022-10-14T09:55:01.354Z,14.90
2022-10-14T09:57:28.971Z,15.93
2022-10-14T10:00:01.719Z,15.60
2022-10-14T10:02:42.559Z,15.43
2022-10-14T10:05:34.787Z,14.13
2022-10-14T10:08:14.015Z,14.37
2022-10-14T10:10:41.847Z,14.57
2022-10-14T10:13:44.588Z,14.40
2022-10-14T10:16:25.380Z,12.43
2022-10-14T10:18:55.969Z,13.03
2022-10-14T10:21:30.139Z,12.83
2022-10-14T10:24:03.838Z,12.77
2022-10-14T10:26:35.710Z,11.63
2022-10-14T10:29:05.680Z,11.10
2022-10-14T10:32:09.230Z,10.65
2022-10-14T10:35:14.834Z,9.10
2022-10-14T10:38:15.237Z,10.57
2022-10-14T10:41:19.864Z,10.55
2022-10-14T10:44:26.605Z,9.35
2022-10-14T10:47:15.526Z,10.52
2022-10-14T10:50:15.518Z,10.52
2022-10-14T10:53:17.283Z,9.43
2022-10-14T10:56:07.446Z,10.15
2022-10-14T11:02:51.494Z,11.10
2022-10-14T11:05:52.373Z,11.50
2022-10-14T11:09:23.303Z,11.38
2022-10-14T11:12:12.817Z,11.85
2022-10-14T11:15:10.501Z,10.70
2022-10-14T11:18:03.041Z,10.73
2022-10-14T11:21:13.812Z,11.32
2022-10-14T11:24:28.246Z,11.40
2022-10-14T11:27:19.740Z,11.63
2022-10-14T11:30:32.488Z,11.05
2022-10-14T11:33:18.046Z,11.55
2022-10-14T11:36:31.463Z,12.02
2022-10-14T11:39:50.119Z,11.52
2022-10-14T11:42:39.874Z,12.52
2022-10-14T11:45:50.758Z,12.80
2022-10-14T11:48:41.083Z,11.30
2022-10-14T11:51:47.369Z,10.50
2022-10-14T11:54:17.448Z,10.00
2022-10-14T11:57:17.603Z,10.88
2022-10-14T12:00:21.018Z,11.95
2022-10-14T12:03:40.748Z,11.05
2022-10-14T12:06:34.272Z,11.38
2022-10-14T12:09:19.567Z,11.00
2022-10-14T12:12:14.586Z,11.93
2022-10-14T12:15:04.422Z,12.40
2022-10-14T12:17:56.529Z,11.23
2022-10-14T12:20:29.726Z,11.07
2022-10-14T12:22:58.466Z,11.65
2022-10-14T12:25:43.729Z,11.57
2022-10-14T12:28:16.982Z,11.23
2022-10-14T12:30:44.020Z,11.80
2022-10-14T12:33:22.626Z,9.90
2022-10-14T12:36:01.510Z,10.20
2022-10-14T12:38:31.368Z,10.80
2022-10-14T12:41:37.235Z,11.05
2022-10-14T12:44:14.027Z,11.50
2022-10-14T12:46:47.120Z,10.35
2022-10-14T12:49:35.080Z,10.93
2022-10-14T12:52:08.548Z,11.02
2022-10-14T12:54:45.782Z,10.50
2022-10-14T12:57:36.218Z,10.60
2022-10-14T13:00:25.732Z,9.98
2022-10-14T13:03:01.689Z,9.65
2022-10-14T13:05:45.172Z,9.07
2022-10-14T13:08:21.087Z,10.18
2022-10-14T13:11:02.304Z,8.65
2022-10-14T13:13:42.119Z,9.18
2022-10-14T13:16:21.384Z,8.60
2022-10-14T13:19:01.302Z,8.77
2022-10-14T13:21:37.055Z,8.93
2022-10-14T13:24:30.018Z,9.68
2022-10-14T13:27:06.506Z,10.15
2022-10-14T13:30:20.810Z,8.90
2022-10-14T13:33:00.161Z,8.10
2022-10-14T13:36:03.915Z,9.05
2022-10-14T13:38:39.174Z,8.68
2022-10-14T13:41:14.545Z,8.10
2022-10-14T13:43:43.227Z,7.60
2022-10-14T13:46:39.079Z,8.65
2022-10-14T13:52:01.736Z,8.38
2022-10-14T13:54:30.962Z,7.05
2022-10-14T14:00:40.224Z,6.82
2022-10-14T14:03:23.310Z,6.43
2022-10-14T14:05:51.270Z,7.18
2022-10-14T14:08:40.897Z,5.93
2022-10-14T14:11:17.980Z,7.00
2022-10-14T14:14:09.357Z,6.20
2022-10-14T14:19:29.602Z,7.60
2022-10-14T14:22:20.914Z,5.60
2022-10-14T14:24:49.284Z,6.22
2022-10-14T14:27:23.668Z,7.45
2022-10-14T14:29:53.965Z,6.57
2022-10-14T14:32:29.754Z,5.65
2022-10-14T14:34:57.197Z,5.65
2022-10-14T14:37:48.086Z,5.93
2022-10-14T14:40:30.060Z,5.30
2022-10-14T14:43:04.278Z,6.50
2022-10-14T14:45:42.298Z,4.97
2022-10-14T14:48:15.343Z,5.85
2022-10-14T14:50:45.146Z,5.40
2022-10-14T14:53:29.380Z,6.88
2022-10-14T14:55:56.194Z,7.93
2022-10-14T14:58:38.688Z,5.20
2022-10-14T15:01:21.893Z,5.38
2022-10-14T15:04:17.680Z,5.72
2022-10-14T15:07:21.800Z,5.10
2022-10-14T15:10:02.397Z,4.93
2022-10-14T15:12:41.890Z,5.00
2022-10-14T15:15:34.072Z,4.97
2022-10-14T15:18:26.112Z,4.70
2022-10-14T15:21:04.817Z,5.13
2022-10-14T15:23:46.050Z,5.20
2022-10-14T15:26:27.929Z,4.82
2022-10-14T15:29:08.300Z,5.03
2022-10-14T15:31:37.709Z,4.88
2022-10-14T15:34:06.409Z,5.05
2022-10-14T15:36:34.654Z,5.60
2022-10-14T15:39:02.481Z,5.13
2022-10-14T15:41:29.665Z,5.15
2022-10-14T15:43:56.791Z,4.83
2022-10-14T15:46:42.626Z,5.70
2022-10-14T15:49:25.394Z,5.35
2022-10-14T15:51:52.348Z,5.37
2022-10-14T15:54:19.296Z,4.90
2022-10-14T15:56:48.221Z,5.20
2022-10-14T15:59:16.262Z,4.57
2022-10-14T16:01:45.120Z,4.73
2022-10-14T16:04:24.106Z,5.33
2022-10-14T16:06:55.656Z,5.40
2022-10-14T16:09:27.730Z,5.57
2022-10-14T16:11:57.606Z,4.90
2022-10-14T16:14:28.051Z,5.60
2022-10-14T16:16:55.433Z,5.40
2022-10-14T16:19:22.656Z,7.13
2022-10-14T16:21:50.140Z,7.67
2022-10-14T16:24:20.863Z,6.27
2022-10-14T16:26:49.211Z,6.20
2022-10-14T16:29:18.197Z,5.70
2022-10-14T16:31:50.106Z,6.17
2022-10-14T16:34:19.066Z,6.40
2022-10-14T16:36:48.742Z,5.47
2022-10-14T16:39:16.775Z,5.80
2022-10-14T16:41:44.164Z,5.73
2022-10-14T16:44:24.710Z,5.63
2022-10-14T16:47:27.509Z,6.27
2022-10-14T16:49:54.718Z,5.83
2022-10-14T16:52:21.953Z,5.33
2022-10-14T16:54:49.244Z,6.20
2022-10-14T16:57:16.506Z,6.37
2022-10-14T16:59:43.470Z,7.03
2022-10-14T17:02:16.549Z,6.40
2022-10-14T17:04:48.035Z,7.53
2022-10-14T17:07:17.289Z,5.90
2022-10-14T17:09:44.264Z,6.83
2022-10-14T17:12:20.230Z,6.77
2022-10-14T17:14:47.175Z,5.93
2022-10-14T17:17:14.172Z,7.37
2022-10-14T17:19:41.360Z,7.43
2022-10-14T17:22:08.473Z,8.33
2022-10-14T17:24:36.637Z,8.30
2022-10-14T17:27:06.711Z,7.93
2022-10-14T17:29:34.057Z,7.30
2022-10-14T17:32:01.011Z,7.63
2022-10-14T17:34:27.928Z,7.53
2022-10-14T17:36:55.288Z,6.70
2022-10-14T17:39:27.616Z,7.10
2022-10-14T17:41:56.347Z,6.67
2022-10-14T17:44:23.519Z,8.23
2022-10-14T17:46:50.566Z,8.60
2022-10-14T17:49:17.565Z,7.53
2022-10-14T17:51:44.846Z,6.50
2022-10-14T17:54:12.652Z,7.20
2022-10-14T17:56:40.917Z,6.10
2022-10-14T17:59:12.048Z,8.40
2022-10-14T18:04:26.173Z,7.40
2022-10-14T18:06:54.069Z,7.40
2022-10-14T18:09:23.922Z,7.13
2022-10-14T18:14:41.983Z,8.27
2022-10-14T18:17:12.917Z,7.20
2022-10-14T18:19:47.228Z,8.20
2022-10-14T18:22:17.065Z,7.13
2022-10-14T18:24:44.507Z,7.20
2022-10-14T18:27:11.576Z,7.63
2022-10-14T18:29:39.245Z,7.00
2022-10-14T18:32:06.363Z,7.23
2022-10-14T18:34:33.682Z,7.60
2022-10-14T18:37:00.637Z,7.03
2022-10-14T18:39:27.649Z,7.67
2022-10-14T18:41:54.559Z,7.23
2022-10-14T18:44:21.560Z,6.80
2022-10-14T18:46:48.646Z,7.47
2022-10-14T18:49:15.611Z,8.20
2022-10-14T18:51:43.279Z,8.37
2022-10-14T18:54:20.901Z,7.77
2022-10-14T18:56:48.093Z,7.90
2022-10-14T18:59:21.963Z,8.37
2022-10-14T19:01:52.795Z,7.70
2022-10-14T19:04:25.431Z,8.10
2022-10-14T19:06:52.520Z,8.07
2022-10-14T19:09:24.528Z,8.10
2022-10-14T19:11:52.976Z,7.83
2022-10-14T19:14:22.370Z,8.53
2022-10-14T19:16:49.728Z,8.53
2022-10-14T19:19:19.855Z,7.20
2022-10-14T19:21:50.623Z,6.30
2022-10-14T19:24:17.668Z,5.97
2022-10-14T19:26:46.823Z,8.90
2022-10-14T19:29:15.347Z,6.87
2022-10-14T19:31:44.023Z,5.33
2022-10-14T19:34:15.457Z,7.27
2022-10-14T19:36:44.219Z,7.93
2022-10-14T19:39:15.667Z,8.70
2022-10-14T19:41:44.324Z,7.50
2022-10-14T19:44:13.237Z,8.23
2022-10-14T19:46:40.615Z,6.37
2022-10-14T19:49:07.640Z,8.10
2022-10-14T19:51:35.296Z,8.07
2022-10-14T19:54:03.164Z,7.70
2022-10-14T19:56:30.509Z,8.00
2022-10-14T19:58:59.516Z,8.67
2022-10-14T20:01:29.559Z,8.07
2022-10-14T20:03:58.809Z,8.50
2022-10-14T20:06:27.283Z,7.70
2022-10-14T20:08:54.170Z,8.47
2022-10-14T20:11:23.421Z,7.43
2022-10-14T20:13:50.677Z,7.90
2022-10-14T20:16:18.123Z,8.33
2022-10-14T20:18:45.171Z,8.40
2022-10-14T20:21:15.622Z,8.53
2022-10-14T20:23:43.410Z,8.90
2022-10-14T20:26:19.737Z,8.67
2022-10-14T20:28:47.544Z,8.53
2022-10-14T20:31:22.047Z,8.63
2022-10-14T20:33:49.497Z,8.20
2022-10-14T20:36:21.625Z,9.50
2022-10-14T20:38:49.590Z,8.80
2022-10-14T20:41:22.695Z,9.17
2022-10-14T20:43:50.510Z,9.53
2022-10-14T20:46:18.113Z,9.40
2022-10-14T20:48:46.459Z,9.63
2022-10-14T20:51:20.295Z,9.33
2022-10-14T20:53:47.304Z,9.70
2022-10-14T20:56:15.123Z,9.80
2022-10-14T20:58:43.043Z,10.63
2022-10-14T21:01:17.134Z,8.80
2022-10-14T21:03:47.518Z,10.13
2022-10-14T21:06:20.507Z,11.30
2022-10-14T21:08:49.740Z,11.23
2022-10-14T21:11:21.829Z,11.63
2022-10-14T21:13:56.374Z,12.33
2022-10-14T21:16:33.861Z,11.27
2022-10-14T21:19:07.654Z,10.40
2022-10-14T21:21:45.349Z,12.47
2022-10-14T21:24:16.756Z,10.73
2022-10-14T21:26:50.114Z,11.73
2022-10-14T21:29:21.518Z,11.60
2022-10-14T21:31:49.493Z,12.40
2022-10-14T21:34:16.498Z,12.83
2022-10-14T21:36:43.451Z,12.83
2022-10-14T21:39:16.849Z,14.00
2022-10-14T21:41:44.828Z,12.70
2022-10-14T21:44:17.628Z,13.37
2022-10-14T21:46:44.702Z,13.20
2022-10-14T21:49:12.581Z,13.90
2022-10-14T21:51:40.064Z,14.17
2022-10-14T21:54:07.292Z,15.20
2022-10-14T21:56:34.457Z,14.10
2022-10-14T21:59:01.403Z,14.70
2022-10-14T22:01:30.571Z,14.57
2022-10-14T22:04:05.162Z,13.67
2022-10-14T22:06:35.284Z,13.27
2022-10-14T22:09:06.542Z,13.03
2022-10-14T22:11:38.789Z,14.40
2022-10-14T22:14:13.868Z,13.63
2022-10-14T22:16:41.173Z,14.47
2022-10-14T22:19:08.387Z,13.23
2022-10-14T22:21:38.748Z,13.57
2022-10-14T22:26:40.465Z,15.37
2022-10-14T22:29:17.539Z,15.00
2022-10-14T22:31:45.834Z,14.77
2022-10-14T22:34:16.695Z,15.90
2022-10-14T22:36:44.398Z,15.57
2022-10-14T22:39:16.191Z,13.67
2022-10-14T22:41:43.355Z,15.23
2022-10-14T22:44:10.539Z,15.13
2022-10-14T22:46:39.419Z,16.30
2022-10-14T22:49:06.333Z,14.80
2022-10-14T22:51:38.046Z,16.13
2022-10-14T22:54:05.071Z,16.60
2022-10-14T22:56:32.810Z,16.07
2022-10-14T22:59:05.473Z,14.60
2022-10-14T23:01:32.983Z,16.90
2022-10-14T23:04:00.964Z,17.13
2022-10-14T23:06:28.947Z,15.47
2022-10-14T23:08:56.881Z,15.73
2022-10-14T23:11:25.266Z,16.67
2022-10-14T23:13:53.425Z,15.87
2022-10-14T23:16:27.596Z,17.50
2022-10-14T23:18:55.400Z,16.10
2022-10-14T23:21:33.392Z,16.47
2022-10-14T23:24:07.277Z,16.87
2022-10-14T23:26:36.176Z,17.10
2022-10-14T23:29:11.408Z,16.33
2022-10-14T23:31:39.989Z,17.67
2022-10-14T23:34:13.055Z,16.80
2022-10-14T23:36:41.080Z,16.33
2022-10-14T23:39:08.365Z,16.27
2022-10-14T23:41:35.319Z,17.73
2022-10-14T23:44:02.880Z,16.80
2022-10-14T23:46:29.929Z,17.13
2022-10-14T23:49:07.233Z,15.97
2022-10-14T23:51:35.554Z,15.07
2022-10-14T23:54:02.707Z,16.73
2022-10-14T23:56:29.681Z,18.43
2022-10-14T23:58:56.608Z,17.03
